Latest Coastal Weather Observations for Cato Island

IDQ60701

Issued at 8:42 pm EST Monday 21 October 2019 (issued every 10 minutes, with the page automatically refreshed every 10 minutes)

About coastal observations | Map of coastal stations | Coastal observations for QLD | Marine services | Other Formats
Station Details ID: 200601 Name: CATO ISLAND Lat: -23.25 Lon: 155.54 Height: 6.3 m
Data from the previous 72 hours. | See also: Recent months for locations in Queensland
Date/Time
EST
Wind Sea
Height
m
Swell Vis
km
Cloud Weather Temp
°C
Press
hPa
Rain since
9am
mm
Dir  Spd
kts
Gust
kts
Height
m
Period
s
Dir
21/08:30pm - 20 22 - - - - - - - 22.5 1021.0 -
21/08:00pm - 21 24 - - - - - - - 22.5 1020.8 -
21/07:30pm - 21 24 - - - - - - - 22.6 1020.7 -
21/07:00pm - 22 26 - - - - - - - 22.6 1020.4 -
21/06:30pm - 23 27 - - - - - - - 22.6 1020.1 -
21/06:00pm - 22 26 - - - - - - - 22.6 1019.6 -
21/05:30pm - 22 26 - - - - - - - 22.7 1019.3 -
21/05:00pm - 21 24 - - - - - - - 22.8 1019.0 -
21/04:30pm - 22 25 - - - - - - - 22.9 1018.7 -
21/04:00pm - 22 25 - - - - - - - 22.9 1018.4 -
21/03:30pm - 21 25 - - - - - - - 23.1 1018.1 -
21/03:00pm - 21 24 - - - - - - - 23.2 1018.0 -
21/02:30pm - 21 24 - - - - - - - 23.3 1018.1 -
21/02:00pm - 21 23 - - - - - - - 23.2 1018.2 -
21/01:30pm - 20 23 - - - - - - - 23.5 1018.3 -
21/01:00pm - 21 24 - - - - - - - 23.3 1018.5 -
21/12:30pm - 21 25 - - - - - - - 23.5 1018.7 -
21/12:00pm - 22 27 - - - - - - - 23.5 1018.7 -
21/11:30am - 22 25 - - - - - - - 23.5 1018.9 -
21/11:00am - 21 24 - - - - - - - 23.8 1019.3 -
21/10:30am - 21 23 - - - - - - - 23.8 1019.5 -
21/10:00am - 17 21 - - - - - - - 23.9 1019.7 -
21/09:30am - 15 18 - - - - - - - 23.9 1019.9 -
21/09:00am - 14 16 - - - - - - - 23.6 1020.0 -
21/08:30am - 13 15 - - - - - - - 23.9 1020.1 -
21/08:00am - 14 17 - - - - - - - 23.5 1019.8 -
21/07:30am - 13 15 - - - - - - - 23.9 1019.5 -
21/07:00am - 12 14 - - - - - - - 23.5 1019.3 -
21/06:30am - 12 14 - - - - - - - 23.4 1019.0 -
21/06:00am - 13 15 - - - - - - - 23.5 1019.0 -
21/05:30am - 13 16 - - - - - - - 23.2 1018.5 -
21/05:00am - 12 15 - - - - - - - 23.2 1018.0 -
21/04:30am - 11 13 - - - - - - - 23.0 1017.5 -
21/04:00am - 11 13 - - - - - - - 23.0 1017.2 -
21/03:30am - 15 17 - - - - - - - 23.0 1016.5 -
21/03:00am - 13 14 - - - - - - - 23.1 1016.5 -
21/02:30am - 10 14 - - - - - - - 23.1 1016.5 -
21/02:00am - 1 3 - - - - - - - 23.1 1016.7 -
21/01:30am - 1 3 - - - - - - - 23.2 1016.9 -
21/01:00am - 1 3 - - - - - - - 23.3 1017.2 -
21/12:30am CALM 0 0 - - - - - - - 23.2 1017.5 -
21/12:00am CALM 0 2 - - - - - - - 23.2 1017.5 -
 
Date/Time
EST
Wind Sea
Height
m
Swell Vis
km
Cloud Weather Temp
°C
Press
hPa
Rain since
9am
mm
Dir  Spd
kts
Gust
kts
Height
m
Period
s
Dir
20/11:30pm CALM 0 2 - - - - - - - 23.2 1017.7 -
20/11:00pm CALM 0 1 - - - - - - - 23.4 1017.8 -
20/10:30pm CALM 0 1 - - - - - - - 23.2 1018.0 -
20/10:00pm CALM 0 1 - - - - - - - 23.4 1018.1 -
20/09:30pm CALM 0 2 - - - - - - - 23.5 1018.0 -
20/09:00pm CALM 0 1 - - - - - - - 23.5 1017.9 -
20/08:30pm CALM 0 2 - - - - - - - 23.7 1017.8 -
20/08:00pm CALM 0 2 - - - - - - - 23.9 1017.6 -
20/07:30pm CALM 0 2 - - - - - - - 23.8 1017.3 -
20/07:00pm CALM 0 1 - - - - - - - 23.8 1017.2 -
20/06:30pm CALM 0 1 - - - - - - - 24.0 1016.8 -
20/06:00pm CALM 0 2 - - - - - - - 24.1 1016.5 -
20/05:30pm CALM 0 3 - - - - - - - 24.4 1016.1 -
20/05:00pm CALM 0 3 - - - - - - - 24.7 1015.7 -
20/04:30pm CALM 0 3 - - - - - - - 25.1 1015.3 -
20/04:00pm - 1 3 - - - - - - - 24.8 1015.2 -
20/03:30pm - 5 7 - - - - - - - 25.0 1015.0 -
20/03:00pm - 7 8 - - - - - - - 25.3 1014.9 -
20/02:30pm - 7 8 - - - - - - - 25.2 1015.0 -
20/02:00pm - 7 9 - - - - - - - 25.3 1015.1 -
20/01:30pm - 7 9 - - - - - - - 25.1 1015.3 -
20/01:00pm - 8 9 - - - - - - - 25.4 1015.4 -
20/12:30pm - 7 9 - - - - - - - 26.0 1015.7 -
20/12:00pm - 8 9 - - - - - - - 26.2 1015.8 -
20/11:30am - 8 10 - - - - - - - 25.9 1016.1 -
20/11:00am - 8 11 - - - - - - - 25.9 1016.4 -
20/10:30am - 10 11 - - - - - - - 25.8 1016.6 -
20/10:00am - 9 11 - - - - - - - 25.5 1017.2 -
20/09:30am - 9 11 - - - - - - - 25.9 1017.2 -
20/09:00am - 9 11 - - - - - - - 25.9 1017.1 -
20/08:30am - 10 13 - - - - - - - 24.9 1017.1 -
20/08:00am - 10 13 - - - - - - - 24.8 1016.9 -
20/07:30am - 8 10 - - - - - - - 24.6 1016.9 -
20/07:00am - 9 11 - - - - - - - 24.2 1016.8 -
20/06:30am - 8 11 - - - - - - - 23.8 1016.6 -
20/06:00am - 9 11 - - - - - - - 23.2 1016.4 -
20/05:30am - 8 11 - - - - - - - 22.7 1016.1 -
20/05:00am - 8 11 - - - - - - - 22.5 1016.0 -
20/04:30am - 2 7 - - - - - - - 22.5 1015.9 -
20/04:00am - 6 8 - - - - - - - 22.7 1015.8 -
20/03:30am - 7 8 - - - - - - - 22.7 1015.8 -
20/03:00am - 7 10 - - - - - - - 22.5 1015.3 -
20/02:30am - 8 9 - - - - - - - 22.8 1015.3 -
20/02:00am - 8 11 - - - - - - - 22.7 1015.1 -
20/01:30am - 8 10 - - - - - - - 22.8 1015.3 -
20/01:00am - 8 11 - - - - - - - 22.8 1015.6 -
20/12:30am - 9 11 - - - - - - - 22.8 1015.9 -
20/12:00am - 8 10 - - - - - - - 22.8 1016.6 -
 
Date/Time
EST
Wind Sea
Height
m
Swell Vis
km
Cloud Weather Temp
°C
Press
hPa
Rain since
9am
mm
Dir  Spd
kts
Gust
kts
Height
m
Period
s
Dir
19/11:30pm - 10 12 - - - - - - - 23.1 1016.9 -
19/11:00pm - 8 10 - - - - - - - 23.1 1017.1 -
19/10:30pm - 9 11 - - - - - - - 23.0 1017.1 -
19/10:00pm - 8 11 - - - - - - - 22.9 1017.1 -
19/09:30pm - 8 10 - - - - - - - 23.1 1017.3 -
19/09:00pm - 9 11 - - - - - - - 23.1 1017.1 -
19/08:30pm - 9 11 - - - - - - - 23.1 1017.0 -
19/08:00pm - 12 14 - - - - - - - 23.1 1016.6 -
19/07:30pm - 9 11 - - - - - - - 23.1 1016.5 -
19/07:00pm - 8 9 - - - - - - - 23.1 1016.5 -
19/06:30pm - 10 12 - - - - - - - 23.1 1016.3 -
19/06:00pm - 10 13 - - - - - - - 23.2 1016.0 -
19/05:30pm - 10 12 - - - - - - - 23.3 1015.8 -
19/05:00pm - 8 11 - - - - - - - 23.9 1015.8 -
19/04:30pm - 9 12 - - - - - - - 24.3 1015.6 -
19/04:00pm - 9 11 - - - - - - - 24.6 1015.6 -
19/03:30pm - 10 11 - - - - - - - 24.7 1015.5 -
19/03:00pm - 9 10 - - - - - - - 24.9 1015.7 -
19/02:30pm - 9 11 - - - - - - - 25.4 1016.1 -
19/02:00pm - 9 11 - - - - - - - 25.5 1016.4 -
19/01:30pm - 7 9 - - - - - - - 26.1 1016.9 -
19/01:00pm - 7 9 - - - - - - - 25.8 1017.1 -
19/12:30pm - 6 8 - - - - - - - 25.8 1017.4 -
19/12:00pm - 7 9 - - - - - - - 26.0 1017.7 -
19/11:30am - 9 10 - - - - - - - 25.8 1017.9 -
19/11:00am - 9 10 - - - - - - - 25.8 1018.0 -
19/10:30am - 8 10 - - - - - - - 25.9 1018.3 -
19/10:00am - 7 8 - - - - - - - 26.1 1018.5 -
19/09:30am - 7 9 - - - - - - - 25.6 1018.8 -
19/09:00am - 5 7 - - - - - - - 25.6 1018.9 -
19/08:30am - 6 7 - - - - - - - 24.7 1019.1 -
19/08:00am - 6 8 - - - - - - - 24.7 1018.9 -
19/07:30am - 6 7 - - - - - - - 24.2 1018.9 -
19/07:00am - 8 10 - - - - - - - 24.1 1018.7 -
19/06:30am - 8 11 - - - - - - - 23.4 1018.7 -
19/06:00am - 9 13 - - - - - - - 23.3 1018.3 -
19/05:30am - 7 9 - - - - - - - 22.6 1017.8 -
19/05:00am - 6 10 - - - - - - - 22.3 1017.1 -
19/04:30am - 2 8 - - - - - - - 22.3 1017.1 -
19/04:00am CALM 0 3 - - - - - - - 22.5 1017.0 -
19/03:30am - 1 2 - - - - - - - 22.5 1016.9 -
19/03:00am CALM 0 3 - - - - - - - 22.6 1016.8 -
19/02:30am - 8 11 - - - - - - - 22.5 1017.0 -
19/02:00am - 9 11 - - - - - - - 22.6 1016.9 -
19/01:30am - 1 3 - - - - - - - 22.8 1017.1 -
19/01:00am CALM 0 5 - - - - - - - 22.6 1017.0 -
19/12:30am - 1 3 - - - - - - - 22.5 1017.3 -
19/12:00am CALM 0 2 - - - - - - - 22.6 1017.4 -
 
Date/Time
EST
Wind Sea
Height
m
Swell Vis
km
Cloud Weather Temp
°C
Press
hPa
Rain since
9am
mm
Dir  Spd
kts
Gust
kts
Height
m
Period
s
Dir
18/11:30pm CALM 0 3 - - - - - - - 22.6 1017.8 -
18/11:00pm - 7 9 - - - - - - - 22.7 1017.6 -
18/10:30pm - 7 9 - - - - - - - 22.8 1017.5 -
18/10:00pm - 8 9 - - - - - - - 22.8 1017.5 -
18/09:30pm - 8 10 - - - - - - - 22.9 1017.6 -
18/09:00pm - 8 9 - - - - - - - 23.1 1017.3 -

Other formats

Comma delimited format used in spreadsheet applications
http://www.bom.gov.au/fwo/IDQ60701/IDQ60701.94394.axf

JavaScript Object Notation format (JSON) in row-major order
http://www.bom.gov.au/fwo/IDQ60701/IDQ60701.94394.json

Data quality

Most of these data are generated automatically and are frequently updated. Quality checks on data are not normally performed. It is possible for incorrect values to appear. Refer to information at About Latest Weather Observations and please check the disclaimer before using these data.